METAR Data
IDs: Format: Raw Decoded Include TAF

Data at: 1231 UTC 16 Jul 2019

KAEG 161149Z 00000KT 10SM BKN120 20/09 A3017
KAEG 161135Z AUTO 00000KT 10SM BKN120 21/09 A3016 RMK AO2 T02050092
KAEG 161115Z AUTO 00000KT 10SM SCT120 20/09 A3015 RMK AO2 T01970090
KAEG 161055Z AUTO 24004KT 10SM SCT120 19/09 A3015 RMK AO2 T01940086
KAEG 161035Z AUTO 00000KT 10SM SCT120 20/09 A3014 RMK AO2 T01980088
KAEG 161015Z AUTO 00000KT 10SM CLR 20/09 A3014 RMK AO2 T01960086
KAEG 160955Z AUTO 20005KT 10SM SCT120 19/08 A3014 RMK AO2 T01920084
KAEG 160935Z AUTO 20005KT 10SM SCT120 20/09 A3014 RMK AO2 T02000086
KAEG 160915Z AUTO 20003KT 10SM CLR 20/09 A3014 RMK AO2 T02000087
KAEG 160855Z AUTO 11003KT 10SM CLR 21/09 A3015 RMK AO2 T02090090
KAEG 160835Z AUTO 13004KT 10SM CLR 21/09 A3016 RMK AO2 T02100086
KAEG 160755Z AUTO 00000KT 10SM SCT120 23/09 A3017 RMK AO2 T02270092
KAEG 160735Z AUTO 29003KT 10SM SCT120 23/09 A3018 RMK AO2 T02300092
KAEG 160715Z AUTO 22003KT 10SM BKN120 23/09 A3018 RMK AO2 T02330092
KAEG 160655Z AUTO 21007KT 10SM SCT120 24/09 A3017 RMK AO2 LTG DSNT NE T02440093 403500173
KAEG 160635Z AUTO 23009KT 10SM CLR 24/09 A3017 RMK AO2 T02420092
KAEG 160615Z AUTO 25005KT 10SM CLR 24/10 A3017 RMK AO2 T02420095
KAEG 160555Z AUTO 19003KT 10SM CLR 24/09 A3017 RMK AO2 T02440093 10332 20241
KAEG 160535Z AUTO 26003KT 7SM CLR 25/09 A3017 RMK AO2 T02450092
KAEG 160515Z AUTO 17009KT 10SM CLR 25/09 A3015 RMK AO2 T02500091
KAEG 160455Z AUTO 17008KT 10SM SCT120 26/09 A3017 RMK AO2 T02560090
KAEG 160435Z AUTO 16009KT 10SM SCT120 26/09 A3016 RMK AO2 T02560092
KAEG 160415Z AUTO 00000KT 10SM CLR 26/09 A3015 RMK AO2 T02560088
KAEG 160355Z AUTO 25004KT 10SM CLR 26/09 A3015 RMK AO2 T02610090
KAEG 160250Z 24011KT 10SM BKN100 27/09 A3015
KAEG 160148Z 24020KT 10SM BKN100 29/09 A3013 RMK SHRA DSNT NW
KAEG 160049Z 30009KT 10SM BKN070 32/07 A3011 RMK SHRA DSNT ALQDS
KAEG 152349Z 27009KT 10SM VCSHRA SCT070CU BKN120 33/07 A3010 RMK SHRA ALQDS
KAEG 152250Z 23013KT 10SM VCSHRA SCT070 CU BKN110 34/07 A3010 RMK SHRA N-E
KAEG 152147Z 34004KT 10SM TS VCSH SCT070 BKN110TCU 32/13 A3013 RMK LTG DSNT SW
KAEG 152047Z 14006G16KT 10SM SCT090TCU 33/10 A3014 RMK VCRS W NW
KAEG 151949Z 13005KT 10SM SCT090TCU 33/11 A3017
KAEG 151847Z 13006KT 10SM SCT120 31/12 A3020
KAEG 151747Z VRB04KT 10SM FEW160 29/12 A3021
KAEG 151647Z 00000KT 10SM FEW160 27/12 A3023
KAEG 151547Z VRB04KT 10SM FEW160 25/12 A3024
KAEG 151447Z 01007KT 10SM FEW130 24/12 A3025
KAEG 151347Z 01007KT 10SM FEW130 23/12 A3025
KAEG 151247Z VRB04KT 10SM FEW130 19/12 A3025
KAEG 151147Z 35006KT 10SM FEW130 19/12 A3024
KAEG 151135Z AUTO 33003KT 10SM CLR 17/12 A3024 RMK AO2 T01740116
KAEG 151115Z AUTO 31005KT 10SM CLR 18/12 A3024 RMK AO2 T01750116
KAEG 151055Z AUTO 26003KT 10SM CLR 18/12 A3023 RMK AO2 T01810117
KAEG 151035Z AUTO 27005KT 10SM CLR 18/11 A3023 RMK AO2 T01790114
KAEG 151015Z AUTO 27006KT 10SM CLR 19/12 A3023 RMK AO2 T01870115
KAEG 150955Z AUTO 29006KT 10SM CLR 19/12 A3023 RMK AO2 T01900121
KAEG 150935Z AUTO 28003KT 10SM SCT110 20/12 A3023 RMK AO2 T01980123
KAEG 150915Z AUTO 32003KT 10SM BKN110 21/13 A3023 RMK AO2 T02050125
KAEG 150855Z AUTO 35008KT 10SM SCT110 21/13 A3022 RMK AO2 T02100126
KAEG 150835Z AUTO 36008KT 10SM SCT090 BKN110 21/13 A3022 RMK AO2 LTG DSNT E T02130126
KAEG 150815Z AUTO 01006KT 10SM SCT090 BKN110 21/13 A3022 RMK AO2 T02130125
KAEG 150755Z AUTO 36008KT 10SM SCT050 SCT065 BKN110 21/13 A3023 RMK AO2 T02140125
KAEG 150735Z AUTO 03009KT 10SM SCT050 BKN060 BKN085 23/11 A3023 RMK AO2 T02260113
KAEG 150715Z AUTO 03009KT 10SM SCT110 22/12 A3024 RMK AO2 T02220115
KAEG 150655Z AUTO 03010KT 10SM BKN110 22/12 A3025 RMK AO2 LTG DSNT E T02220115 403570201
KAEG 150635Z AUTO 05012KT 10SM BKN110 22/12 A3025 RMK AO2 T02170120
KAEG 150615Z AUTO 05013G19KT 10SM BKN110 22/12 A3026 RMK AO2 T02200119
KAEG 150555Z AUTO 05014G23KT 10SM SCT110 22/12 A3026 RMK AO2 LTG DSNT E T02220120 10323 20220
KAEG 150535Z AUTO 03015G26KT 10SM SCT110 22/12 A3026 RMK AO2 T02240122
KAEG 150515Z AUTO 02015G21KT 10SM BKN110 22/13 A3025 RMK AO2 T02230127
KAEG 150455Z AUTO 05017G28KT 10SM SCT110 23/13 A3024 RMK AO2 LTG DSNT E T02260125
KAEG 150435Z AUTO 03016G23KT 10SM OVC110 22/13 A3025 RMK AO2 LTG DSNT N T02200131
KAEG 150415Z AUTO 04026G34KT 7SM VCTS BKN110 25/12 A3026 RMK AO2 LTG DSNT N T02480115
KAEG 150355Z AUTO 20005KT 10SM CLR 28/08 A3021 RMK AO2 LTG DSNT NE T02810076
KAEG 150249Z 00000KT 10SM BKN130 29/06 A3017 RMK TS DSNT NE
KAEG 150149Z 27008KT 10SM BKN130 32/06 A3016 RMK SHRA DSNT ALQDS
KAEG 150049Z 26010KT 10SM TS VCSH BKN130 31/08 A3017 RMK LTG VC